PAII

Details ICAO PAII (EGX)
Name EGEGIK
Region USA (Alaska)
Timezone America/Anchorage (UTC-9.0)
Plans Departing 1
Arriving 0
Stats Elevation 92 ft / 28 m (AMSL)
Location 58.185536° -157.374226°
Runways 2
Magnetic Variation 13.138° E
Sunrise 2017-12-12 19:09:31 UTC / 2017-12-12 10:09:31 Local
Sunset 2017-12-13 01:40:12 UTC / 2017-12-12 16:40:12 Local
Advertisement - Login to hide

Runways

ID Width Length Bearing (true) Bearing (mag) Surface Threshold Offset Overrun Length
03 75 ft / 23 m 1,496 ft / 456 m 49.66° 36.52° Gravel 0 ft / 0 m 0 ft / 0 m
12 100 ft / 30 m 5,588 ft / 1,703 m 139.77° 126.63° Gravel 0 ft / 0 m 0 ft / 0 m
21 75 ft / 23 m 1,496 ft / 456 m 229.67° 216.53° Gravel 0 ft / 0 m 0 ft / 0 m
30 100 ft / 30 m 5,588 ft / 1,703 m 319.78° 306.64° Gravel 0 ft / 0 m 0 ft / 0 m

Map

Weather


0- 5 10 15 20 25 30 35+ Temperature / ° C

Clouds and Precipitation
Forecast for 2017-12-13 12:00 UTC. Updated 26 minutes ago

Ground ~20,000 ft ~40,000 ft Winds

METAR

PAII 130856Z AUTO 12006KT 10SM -RA BKN041 OVC050 03/02 A2943 RMK AO2 SLP968 P0000 60000 T00330022 50002

TAF

Not found

Frequencies

Recorded 135.65 MHz AWOS 3
Approach 124.80 MHz ANCHORAGE CNTR
Unicom 122.80 MHz CTAF
Warning: Do not use this data for real-world aviation or navigation. No guarantee of current accuracy is given.